Pagrindinis puslapis
METAR-TAF:

METAR-TAF

Oro uostai :

Katherine, Australija

platuma: 14-26S, ilguma: 132-16E, Aukštis: 108 m

Dabartinis oras

Ataskaita buvo paskelbta 47 minutes, ne 07:30 UTC
Vėjas 11 kt iš Vakarų/Šiaurės Vakarų
Temperatūra 38°C
Drėgmė 31%
Slėgis 1003 hPa
Matomumas 10 km arba daugiau
Išsisklaidę debesys ne aukštis 8800 ft

METAR: YPTN 230730Z AUTO 29011KT 9999 // SCT088 38/18 Q1003

Laikas: 17:47 (08:17 UTC)

Prognozė

Ataskaita buvo paskelbta 3 valandos ir 17 minutes, ne 05:00 UTC
Prognozė galioja nuo 23 metu 06 UTC su 24 metu 06 UTC
Vėjas 8 kt iš Vakarų
Matomumas 10 km arba daugiau
nėra debesų žemiau 1500 m ir nėra kamuolinių lietaus debesų
Nuo 23 metu 1800 UTC
Vėjas 9 kt iš Vakarų/Šiaurės Vakarų
Matomumas 10 km arba daugiau
Su prošvaistėmis ne aukštis 1200 ft
Nuo 24 metu 0000 UTC
Vėjas 10 kt iš Vakarų
Matomumas 10 km arba daugiau
nėra debesų žemiau 1500 m ir nėra kamuolinių lietaus debesų

TAF: YPTN 230500Z 2306/2406 26008KT CAVOK FM231800 29009KT 9999 BKN012 FM240000 27010KT CAVOK

Orai ataskaitas ir orų prognozės (METAR, TAF).

turimą stotys yra geltonos ir raudonos taškus žemėlapyje.

Perkelti pele per norėdami pamatyti stoties vardą.

Tada spustelėkite, norėdami matyti oro stebėjimo ir prognozės.

Norėdami pakeisti žemėlapį: spustelėkite ant žalios mygtukų su juodo kryžiaus žemyn,; žalią mygtuką su brūkšneliu, jei norite nutolinti; arba žalių rodyklių gretimoms žemėlapius.


METAR-TAF: